Time;durP1;ratioP1;P1;durP2;ratioP2;P2;SDS_P1;SDS_P2;PMS_P1;PMS_P2;Temp;Humidity;BMP_temperature;BMP_pressure;BME280_temperature;BME280_humidity;BME280_pressure;Samples;Min_cycle;Max_cycle;Signal;HPM_P1;HPM_P2
2023/07/24 00:00:44;;;;;;;2.90;0.85;;;19.80;99.90;;;;;;5120067;28;20032;-77
2023/07/24 00:03:09;;;;;;;0.80;0.60;;;19.80;99.90;;;;;;5120908;28;20032;-78
2023/07/24 00:05:35;;;;;;;0.98;0.70;;;19.80;99.90;;;;;;5103537;28;20386;-78
2023/07/24 00:08:01;;;;;;;1.67;0.80;;;19.80;99.90;;;;;;5121711;28;20083;-78
2023/07/24 00:10:27;;;;;;;1.00;0.50;;;19.80;99.90;;;;;;5122030;28;20046;-78
2023/07/24 00:12:53;;;;;;;1.00;0.70;;;19.80;99.90;;;;;;5123630;28;20027;-77
2023/07/24 00:15:18;;;;;;;3.55;1.15;;;19.80;99.90;;;;;;5124874;28;20309;-78
2023/07/24 00:17:44;;;;;;;2.10;0.68;;;19.80;99.90;;;;;;5090993;28;20066;-78
2023/07/24 00:20:11;;;;;;;1.02;0.85;;;19.80;99.90;;;;;;5110893;28;20117;-78
2023/07/24 00:22:37;;;;;;;1.70;0.80;;;19.70;99.90;;;;;;5110312;28;20031;-78
2023/07/24 00:25:03;;;;;;;1.63;1.00;;;19.70;99.90;;;;;;5106047;28;20437;-78
2023/07/24 00:27:28;;;;;;;1.63;1.00;;;19.70;99.90;;;;;;5126352;28;20042;-79
2023/07/24 00:29:54;;;;;;;2.85;0.95;;;19.70;99.90;;;;;;5106026;28;20047;-79
2023/07/24 00:32:19;;;;;;;2.15;0.90;;;19.70;99.90;;;;;;5123082;28;20034;-79
2023/07/24 00:34:45;;;;;;;1.20;0.73;;;19.70;99.90;;;;;;5122576;28;20483;-79
2023/07/24 00:37:11;;;;;;;1.30;0.85;;;19.70;99.90;;;;;;5105540;28;20031;-79
2023/07/24 00:39:36;;;;;;;2.17;1.00;;;19.70;99.90;;;;;;5120792;28;20035;-79
2023/07/24 00:42:02;;;;;;;1.63;1.13;;;19.70;99.90;;;;;;5097552;28;20523;-79
2023/07/24 00:44:28;;;;;;;1.73;0.98;;;19.70;99.90;;;;;;5119812;28;20024;-79
2023/07/24 00:46:54;;;;;;;1.67;1.23;;;19.70;99.90;;;;;;5119077;28;20050;-79
2023/07/24 00:49:20;;;;;;;3.90;1.10;;;19.60;99.90;;;;;;5119194;28;20449;-79
2023/07/24 00:51:46;;;;;;;2.08;1.00;;;19.70;99.90;;;;;;5099923;28;20051;-79
2023/07/24 00:54:16;;;;;;;1.35;0.82;;;19.70;99.90;;;;;;5115964;28;20139;-79
2023/07/24 00:56:42;;;;;;;1.80;1.00;;;19.70;99.90;;;;;;5117894;28;20030;-79
2023/07/24 00:59:07;;;;;;;2.10;0.88;;;19.70;99.90;;;;;;5119371;28;20110;-78
2023/07/24 01:01:34;;;;;;;1.55;0.80;;;19.70;99.90;;;;;;5097119;28;20072;-79
2023/07/24 01:04:02;;;;;;;1.30;0.80;;;19.70;99.90;;;;;;5099608;28;20027;-79
2023/07/24 01:06:29;;;;;;;1.30;0.75;;;19.60;99.90;;;;;;5097832;28;20040;-78
2023/07/24 01:08:54;;;;;;;1.65;0.90;;;19.70;99.90;;;;;;5122740;28;20028;-78
2023/07/24 01:11:23;;;;;;;3.42;0.70;;;19.70;99.90;;;;;;5123066;28;20107;-78
2023/07/24 01:14:09;;;;;;;2.42;0.90;;;19.70;99.90;;;;;;5121228;28;20024;-78
2023/07/24 01:16:37;;;;;;;2.67;1.00;;;19.70;99.90;;;;;;5102140;28;20081;-78
2023/07/24 01:19:17;;;;;;;1.92;1.02;;;19.70;99.90;;;;;;5118991;28;20035;-79
2023/07/24 01:22:04;;;;;;;0.93;0.70;;;19.80;99.90;;;;;;5116717;28;20454;-79
2023/07/24 01:24:41;;;;;;;2.30;0.70;;;19.70;99.90;;;;;;5116848;28;20034;-79
2023/07/24 01:27:07;;;;;;;2.42;1.00;;;19.80;99.90;;;;;;5098864;28;20031;-79
2023/07/24 01:29:33;;;;;;;1.58;1.00;;;19.80;99.90;;;;;;5117217;28;20054;-79
2023/07/24 01:31:58;;;;;;;3.20;1.67;;;19.80;99.90;;;;;;5099442;28;20035;-78
2023/07/24 01:34:24;;;;;;;2.55;1.15;;;19.80;99.90;;;;;;5116442;28;20375;-80
2023/07/24 01:36:50;;;;;;;2.63;1.40;;;19.80;99.90;;;;;;5114911;28;20063;-79
2023/07/24 01:39:20;;;;;;;2.03;1.52;;;19.80;99.90;;;;;;5117608;28;20096;-79
2023/07/24 01:41:46;;;;;;;2.47;1.90;;;19.80;99.90;;;;;;5121011;28;20023;-78
2023/07/24 01:44:12;;;;;;;2.55;1.95;;;19.80;99.90;;;;;;5100646;28;20032;-79
2023/07/24 01:46:38;;;;;;;1.20;1.10;;;19.80;99.90;;;;;;5085170;28;20379;-79
2023/07/24 01:49:03;;;;;;;1.60;1.50;;;19.80;99.90;;;;;;5101558;28;20028;-79
2023/07/24 01:51:29;;;;;;;2.40;2.20;;;19.70;99.90;;;;;;5119507;28;20036;-78
2023/07/24 01:53:54;;;;;;;3.75;1.80;;;19.70;99.90;;;;;;5120171;28;20047;-78
2023/07/24 01:56:20;;;;;;;4.13;1.95;;;19.70;99.90;;;;;;5121301;28;20434;-78
2023/07/24 01:58:46;;;;;;;2.20;1.50;;;19.70;99.90;;;;;;5100800;28;20038;-78
2023/07/24 02:01:11;;;;;;;2.63;1.80;;;19.70;99.90;;;;;;5098429;28;20084;-78
2023/07/24 02:03:39;;;;;;;2.10;1.80;;;19.70;99.90;;;;;;5082621;28;20034;-78
2023/07/24 02:06:04;;;;;;;2.83;1.90;;;19.70;99.90;;;;;;5118524;28;20035;-78
2023/07/24 02:08:30;;;;;;;2.30;2.00;;;19.70;99.90;;;;;;5116551;28;20371;-78
2023/07/24 02:10:56;;;;;;;2.78;1.92;;;19.60;99.90;;;;;;5113938;28;20138;-79
2023/07/24 02:13:21;;;;;;;1.95;1.75;;;19.70;99.90;;;;;;5113773;28;20079;-78
2023/07/24 02:15:47;;;;;;;2.17;1.45;;;19.60;99.90;;;;;;5095705;28;20032;-78
2023/07/24 02:18:12;;;;;;;3.45;1.92;;;19.70;99.90;;;;;;5113967;28;20039;-78
2023/07/24 02:20:38;;;;;;;1.73;1.52;;;19.70;99.90;;;;;;5095470;28;20139;-78
2023/07/24 02:23:04;;;;;;;2.38;1.95;;;19.60;99.90;;;;;;5113949;28;20039;-78
2023/07/24 02:25:29;;;;;;;2.42;2.20;;;19.60;99.90;;;;;;5112866;28;20024;-79
2023/07/24 02:27:55;;;;;;;2.90;1.88;;;19.70;99.90;;;;;;5095308;28;20088;-78
2023/07/24 02:30:20;;;;;;;4.75;2.42;;;19.70;99.90;;;;;;5113129;28;20024;-77
2023/07/24 02:32:46;;;;;;;2.13;1.92;;;19.70;99.90;;;;;;5113062;28;20498;-78
2023/07/24 02:35:12;;;;;;;2.28;1.40;;;19.70;99.90;;;;;;5095181;28;20030;-78
2023/07/24 02:37:37;;;;;;;3.22;2.20;;;19.70;99.90;;;;;;5113166;28;20111;-79
2023/07/24 02:40:03;;;;;;;2.00;1.58;;;19.70;99.90;;;;;;5097620;28;20032;-78
2023/07/24 02:42:29;;;;;;;1.88;1.42;;;19.70;99.90;;;;;;5107059;28;20027;-79
2023/07/24 02:44:54;;;;;;;3.05;2.20;;;19.70;99.90;;;;;;5126469;28;20039;-78
2023/07/24 02:47:20;;;;;;;2.85;1.80;;;19.70;99.90;;;;;;5126365;28;20035;-78
2023/07/24 02:49:46;;;;;;;4.60;2.40;;;19.70;99.90;;;;;;5123498;28;20059;-79
2023/07/24 02:52:11;;;;;;;4.03;2.58;;;19.70;99.90;;;;;;5121684;28;20056;-79
2023/07/24 02:54:37;;;;;;;2.78;2.17;;;19.70;99.90;;;;;;5122590;28;20028;-78
2023/07/24 02:57:03;;;;;;;1.95;1.73;;;19.70;99.90;;;;;;5121353;28;20032;-80
2023/07/24 02:59:31;;;;;;;2.97;1.80;;;19.80;99.90;;;;;;5118792;28;20028;-79
2023/07/24 03:01:57;;;;;;;3.03;2.30;;;19.80;99.90;;;;;;5120437;28;20034;-79
2023/07/24 03:04:23;;;;;;;3.15;2.00;;;19.80;99.90;;;;;;5119637;28;20020;-78
2023/07/24 03:06:49;;;;;;;2.58;2.30;;;19.80;99.90;;;;;;5118740;28;20220;-78
2023/07/24 03:09:15;;;;;;;3.75;2.03;;;19.80;99.90;;;;;;5118521;28;20144;-79
2023/07/24 03:11:40;;;;;;;3.88;2.47;;;19.80;99.90;;;;;;5119807;28;20035;-79
2023/07/24 03:14:06;;;;;;;2.42;1.40;;;19.80;99.90;;;;;;5100628;28;20039;-79
2023/07/24 03:16:32;;;;;;;1.55;1.38;;;19.80;99.90;;;;;;5084940;28;20498;-79
2023/07/24 03:18:57;;;;;;;2.72;2.22;;;19.80;99.90;;;;;;5100332;28;20412;-79
2023/07/24 03:21:23;;;;;;;1.75;1.50;;;19.90;99.90;;;;;;5116757;28;20034;-80
2023/07/24 03:23:49;;;;;;;3.08;2.10;;;19.90;99.90;;;;;;5118956;28;20027;-79
2023/07/24 03:26:14;;;;;;;3.88;2.05;;;19.90;99.90;;;;;;5117659;28;20043;-79
2023/07/24 03:28:40;;;;;;;2.35;1.80;;;19.80;99.90;;;;;;5120213;28;20515;-80
2023/07/24 03:31:06;;;;;;;2.58;1.98;;;19.80;99.90;;;;;;5119981;28;20507;-79
2023/07/24 03:33:32;;;;;;;4.05;2.78;;;19.80;99.90;;;;;;5121351;28;20042;-79
2023/07/24 03:35:57;;;;;;;2.42;2.22;;;19.80;99.90;;;;;;5104858;28;20039;-79
2023/07/24 03:38:23;;;;;;;2.70;2.28;;;19.90;99.90;;;;;;5123741;28;20023;-79
2023/07/24 03:40:49;;;;;;;4.43;2.95;;;19.80;99.90;;;;;;5121041;28;20049;-78
2023/07/24 03:43:15;;;;;;;3.10;2.45;;;19.90;99.90;;;;;;5100388;28;20023;-77
2023/07/24 03:45:42;;;;;;;3.75;3.00;;;19.80;99.90;;;;;;5116824;28;20083;-77
2023/07/24 03:48:07;;;;;;;3.90;2.83;;;19.80;99.90;;;;;;5116302;28;20499;-77
2023/07/24 03:50:33;;;;;;;4.25;3.85;;;19.80;99.90;;;;;;5115277;28;20053;-76
2023/07/24 03:52:59;;;;;;;4.95;3.88;;;19.80;99.90;;;;;;5114950;28;20123;-76
2023/07/24 03:55:24;;;;;;;4.60;3.63;;;19.80;99.90;;;;;;5114717;28;20040;-76
2023/07/24 03:57:50;;;;;;;3.95;3.20;;;19.70;99.90;;;;;;5115034;28;20157;-76
2023/07/24 04:00:16;;;;;;;3.20;2.90;;;19.70;99.90;;;;;;5115200;28;20416;-75
2023/07/24 04:02:41;;;;;;;3.50;3.20;;;19.70;99.90;;;;;;5115395;28;20098;-76
2023/07/24 04:05:07;;;;;;;5.25;4.05;;;19.70;99.90;;;;;;5097077;28;20031;-75
2023/07/24 04:07:33;;;;;;;4.20;3.60;;;19.70;99.90;;;;;;5115174;28;20393;-76
2023/07/24 04:09:58;;;;;;;3.88;3.22;;;19.60;99.90;;;;;;5115714;28;20023;-76
2023/07/24 04:12:24;;;;;;;4.57;3.47;;;19.60;99.90;;;;;;5115276;28;20102;-76
2023/07/24 04:14:50;;;;;;;3.13;2.80;;;19.60;99.90;;;;;;5115500;28;20058;-76
2023/07/24 04:17:16;;;;;;;2.70;2.38;;;19.60;99.90;;;;;;5115388;28;20382;-76
2023/07/24 04:19:42;;;;;;;3.28;2.72;;;19.60;99.90;;;;;;5115379;28;20055;-76
2023/07/24 04:22:07;;;;;;;3.25;2.95;;;19.60;99.90;;;;;;5115388;28;20503;-76
2023/07/24 04:24:33;;;;;;;4.28;3.00;;;19.50;99.90;;;;;;5096223;28;20122;-76
2023/07/24 04:26:58;;;;;;;3.35;3.05;;;19.60;99.90;;;;;;5097394;28;20075;-76
2023/07/24 04:29:25;;;;;;;3.28;2.85;;;19.50;99.90;;;;;;5115025;28;20039;-76
2023/07/24 04:31:51;;;;;;;2.97;2.67;;;19.50;99.90;;;;;;5114834;28;20027;-76
2023/07/24 04:34:17;;;;;;;3.03;2.72;;;19.40;99.90;;;;;;5097290;28;20148;-76
2023/07/24 04:36:43;;;;;;;3.78;2.92;;;19.50;99.90;;;;;;5115468;28;20028;-77
2023/07/24 04:39:08;;;;;;;3.15;2.85;;;19.50;99.90;;;;;;5115386;28;20056;-77
2023/07/24 04:41:34;;;;;;;3.30;2.88;;;19.50;99.90;;;;;;5115175;28;20059;-77
2023/07/24 04:43:59;;;;;;;3.10;2.80;;;19.50;99.90;;;;;;5115128;28;20028;-77
2023/07/24 04:46:25;;;;;;;4.05;2.85;;;19.50;99.90;;;;;;5114702;28;20037;-77
2023/07/24 04:48:51;;;;;;;4.45;3.47;;;19.50;99.90;;;;;;5114577;28;20085;-77
2023/07/24 04:51:18;;;;;;;3.95;3.50;;;19.50;99.90;;;;;;5115291;28;20092;-76
2023/07/24 04:53:44;;;;;;;4.43;3.40;;;19.50;99.90;;;;;;5096164;28;20075;-76
2023/07/24 04:56:10;;;;;;;4.20;3.15;;;19.50;99.90;;;;;;5097370;28;20046;-76
2023/07/24 04:58:36;;;;;;;5.70;3.75;;;19.50;99.90;;;;;;5115736;28;20027;-77
2023/07/24 05:01:03;;;;;;;3.13;2.83;;;19.40;99.90;;;;;;5115398;28;20038;-78
2023/07/24 05:03:29;;;;;;;4.57;4.07;;;19.40;99.90;;;;;;5114762;28;20028;-77
2023/07/24 05:05:58;;;;;;;4.22;3.75;;;19.40;99.90;;;;;;5096856;28;20035;-77
2023/07/24 05:08:24;;;;;;;4.28;3.30;;;19.30;99.90;;;;;;5096003;28;20031;-77
2023/07/24 05:10:56;;;;;;;4.28;3.65;;;19.30;99.90;;;;;;5115317;28;20054;-76
2023/07/24 05:13:22;;;;;;;5.10;3.63;;;19.30;99.90;;;;;;5096410;28;20449;-77
2023/07/24 05:15:48;;;;;;;4.97;4.22;;;19.30;99.90;;;;;;5114226;28;20118;-77
2023/07/24 05:18:13;;;;;;;6.35;5.18;;;19.30;99.90;;;;;;5114366;28;20032;-77
2023/07/24 05:20:45;;;;;;;3.75;3.33;;;19.30;99.90;;;;;;5096930;28;20028;-77
2023/07/24 05:23:10;;;;;;;4.32;3.80;;;19.30;99.90;;;;;;5115446;28;20035;-77
2023/07/24 05:25:36;;;;;;;6.05;4.97;;;19.30;99.90;;;;;;5114386;28;20036;-77
2023/07/24 05:28:01;;;;;;;6.53;5.85;;;19.30;99.90;;;;;;5114817;28;20062;-77
2023/07/24 05:30:53;;;;;;;9.10;5.85;;;19.40;99.90;;;;;;5114581;28;20040;-77
2023/07/24 05:33:19;;;;;;;6.63;6.03;;;19.40;99.90;;;;;;5114328;28;20031;-77
2023/07/24 05:35:44;;;;;;;4.30;3.20;;;19.30;99.90;;;;;;5095874;28;20547;-77
2023/07/24 05:38:10;;;;;;;6.88;6.18;;;19.30;99.90;;;;;;5114261;28;20455;-77
2023/07/24 05:40:35;;;;;;;6.93;6.22;;;19.30;99.90;;;;;;5114387;28;20050;-77
2023/07/24 05:43:01;;;;;;;6.25;5.65;;;19.20;99.90;;;;;;5096001;28;20028;-77
2023/07/24 05:45:27;;;;;;;6.85;6.05;;;19.20;99.90;;;;;;5114031;28;20023;-77
2023/07/24 05:47:53;;;;;;;5.07;4.65;;;19.20;99.90;;;;;;5113919;28;20049;-77
2023/07/24 05:50:19;;;;;;;5.38;4.90;;;19.20;99.90;;;;;;5114821;28;20032;-77
2023/07/24 05:52:45;;;;;;;7.97;6.80;;;19.20;99.90;;;;;;5095219;28;20483;-77
2023/07/24 05:55:11;;;;;;;6.85;6.07;;;19.20;99.90;;;;;;5114226;28;20104;-77
2023/07/24 05:57:37;;;;;;;6.88;6.10;;;19.20;99.90;;;;;;5113478;28;20047;-77
2023/07/24 06:00:04;;;;;;;7.53;6.70;;;19.20;99.90;;;;;;5113961;28;20136;-77
2023/07/24 06:02:30;;;;;;;7.80;6.95;;;19.20;99.90;;;;;;5095076;28;20437;-77
2023/07/24 06:04:55;;;;;;;10.30;6.75;;;19.20;99.90;;;;;;5095049;28;20133;-77
2023/07/24 06:07:21;;;;;;;7.00;5.68;;;19.20;99.90;;;;;;5113594;28;20031;-78
2023/07/24 06:09:47;;;;;;;9.88;7.65;;;19.20;99.90;;;;;;5114536;28;20036;-77
2023/07/24 06:12:12;;;;;;;6.43;5.65;;;19.20;99.90;;;;;;5113378;28;20024;-76
2023/07/24 06:14:38;;;;;;;7.32;6.40;;;19.20;99.90;;;;;;5113701;28;20080;-77
2023/07/24 06:17:04;;;;;;;7.47;6.20;;;19.10;99.90;;;;;;5116748;28;20039;-77
2023/07/24 06:19:29;;;;;;;8.25;6.47;;;19.10;99.90;;;;;;5098701;28;20031;-76
2023/07/24 06:21:55;;;;;;;7.70;6.18;;;19.10;99.90;;;;;;5116791;28;20024;-76
2023/07/24 06:24:21;;;;;;;8.00;6.30;;;19.20;99.90;;;;;;5116234;28;20024;-76
2023/07/24 06:26:47;;;;;;;7.35;6.47;;;19.10;99.90;;;;;;5116265;28;20028;-76
2023/07/24 06:29:14;;;;;;;8.35;6.80;;;19.20;99.90;;;;;;5116629;28;20036;-76
2023/07/24 06:31:40;;;;;;;9.20;6.22;;;19.20;99.90;;;;;;5116591;28;20092;-76
2023/07/24 06:34:05;;;;;;;4.78;3.75;;;19.20;99.90;;;;;;5116769;28;20086;-76
2023/07/24 06:36:31;;;;;;;7.30;5.53;;;19.30;99.90;;;;;;5116100;28;20481;-77
2023/07/24 06:38:56;;;;;;;10.63;6.95;;;19.30;99.90;;;;;;5116338;28;20214;-77
2023/07/24 06:41:22;;;;;;;8.65;6.50;;;19.40;99.90;;;;;;5116561;28;20035;-77
2023/07/24 06:43:49;;;;;;;8.02;7.15;;;19.40;99.90;;;;;;5115962;28;20161;-77
2023/07/24 06:46:15;;;;;;;7.45;6.30;;;19.40;99.90;;;;;;5115700;28;20028;-77
2023/07/24 06:48:40;;;;;;;11.55;7.28;;;19.40;99.90;;;;;;5116313;28;20031;-76
2023/07/24 06:51:06;;;;;;;9.45;6.78;;;19.40;99.90;;;;;;5116308;28;20106;-76
2023/07/24 06:53:32;;;;;;;8.15;5.57;;;19.40;99.90;;;;;;5116108;28;20052;-76
2023/07/24 06:55:57;;;;;;;11.15;7.25;;;19.40;99.90;;;;;;5115543;28;20023;-77
2023/07/24 06:58:23;;;;;;;9.05;6.75;;;19.30;99.90;;;;;;5115981;28;20035;-77
2023/07/24 07:00:49;;;;;;;8.02;5.65;;;19.30;99.90;;;;;;5117486;28;20383;-76
2023/07/24 07:03:14;;;;;;;9.13;6.55;;;19.30;99.90;;;;;;5120894;28;20052;-77
2023/07/24 07:05:40;;;;;;;8.77;7.13;;;19.30;99.90;;;;;;5099839;28;20028;-77
2023/07/24 07:08:05;;;;;;;6.30;5.55;;;19.30;99.90;;;;;;5116223;28;20043;-77
2023/07/24 07:10:32;;;;;;;8.20;6.85;;;19.30;99.90;;;;;;5115771;28;20034;-76
2023/07/24 07:12:57;;;;;;;8.85;7.88;;;19.40;99.90;;;;;;5115962;28;20028;-77
2023/07/24 07:15:23;;;;;;;9.60;8.10;;;19.40;99.90;;;;;;5115674;28;20074;-77
2023/07/24 07:17:48;;;;;;;11.18;7.40;;;19.40;99.90;;;;;;5115472;28;20525;-77
2023/07/24 07:20:14;;;;;;;11.45;8.32;;;19.50;99.90;;;;;;5115488;28;20057;-77
2023/07/24 07:22:40;;;;;;;11.55;8.50;;;19.50;99.90;;;;;;5116158;28;20529;-77
2023/07/24 07:25:06;;;;;;;13.95;9.23;;;19.50;99.90;;;;;;5096716;28;20057;-76
2023/07/24 07:27:31;;;;;;;11.05;9.15;;;19.60;99.90;;;;;;5097099;28;20035;-76
2023/07/24 07:29:57;;;;;;;8.90;8.00;;;19.60;99.90;;;;;;5115377;28;20126;-77
2023/07/24 07:32:23;;;;;;;10.77;9.10;;;19.60;99.90;;;;;;5096919;28;20023;-77
2023/07/24 07:34:49;;;;;;;11.02;9.15;;;19.60;99.90;;;;;;5115802;28;20039;-76
2023/07/24 07:37:14;;;;;;;10.23;8.88;;;19.60;99.90;;;;;;5115597;28;20062;-76
2023/07/24 07:39:40;;;;;;;11.45;9.20;;;19.60;99.90;;;;;;5097328;28;20093;-77
2023/07/24 07:42:06;;;;;;;11.27;8.88;;;19.60;99.90;;;;;;5080715;28;20119;-76
2023/07/24 07:44:31;;;;;;;9.45;8.45;;;19.60;99.90;;;;;;5079806;28;20039;-77
2023/07/24 07:46:57;;;;;;;10.38;9.27;;;19.60;99.90;;;;;;5114715;28;20032;-78
2023/07/24 07:49:23;;;;;;;10.38;8.43;;;19.60;99.90;;;;;;5096802;28;20109;-77
2023/07/24 07:51:48;;;;;;;11.10;8.32;;;19.60;99.90;;;;;;5114929;28;20020;-76
2023/07/24 07:54:15;;;;;;;11.85;9.85;;;19.70;99.90;;;;;;5115310;28;20051;-77
2023/07/24 07:56:41;;;;;;;11.07;8.52;;;19.70;99.90;;;;;;5115179;28;20043;-77
2023/07/24 07:59:07;;;;;;;12.00;8.52;;;19.70;99.90;;;;;;5114917;28;20038;-76
2023/07/24 08:01:33;;;;;;;11.63;8.65;;;19.80;99.90;;;;;;5096634;28;20027;-77
2023/07/24 08:03:59;;;;;;;10.95;9.18;;;19.80;99.90;;;;;;5114883;28;20115;-78
2023/07/24 08:06:24;;;;;;;10.00;7.80;;;19.90;99.90;;;;;;5096853;28;20034;-77
2023/07/24 08:08:50;;;;;;;14.10;10.38;;;19.80;99.90;;;;;;5097380;28;20494;-77
2023/07/24 08:11:16;;;;;;;11.40;10.15;;;19.70;99.90;;;;;;5114790;28;20024;-76
2023/07/24 08:13:42;;;;;;;13.27;9.48;;;19.70;99.90;;;;;;5096856;28;20035;-77
2023/07/24 08:16:18;;;;;;;11.65;8.70;;;19.60;99.90;;;;;;5114676;28;20032;-76
2023/07/24 08:18:46;;;;;;;12.18;10.02;;;19.60;99.90;;;;;;5097255;28;20410;-76
2023/07/24 08:21:13;;;;;;;9.63;8.15;;;19.50;99.90;;;;;;5115007;28;20024;-76
2023/07/24 08:23:39;;;;;;;11.93;9.05;;;19.60;99.90;;;;;;5096859;28;20035;-76
2023/07/24 08:26:05;;;;;;;13.25;9.15;;;19.70;99.90;;;;;;5096144;28;20027;-76
2023/07/24 08:28:31;;;;;;;9.38;8.27;;;19.80;99.90;;;;;;5097102;28;20495;-76
2023/07/24 08:31:01;;;;;;;13.85;10.18;;;19.90;99.90;;;;;;5096670;28;20032;-77
2023/07/24 08:33:26;;;;;;;10.25;8.05;;;20.10;99.90;;;;;;5114547;28;20475;-75
2023/07/24 08:36:00;;;;;;;14.07;9.57;;;20.10;99.90;;;;;;5115028;28;20023;-76
2023/07/24 08:38:26;;;;;;;9.35;8.43;;;20.30;99.90;;;;;;5113579;28;20031;-77
2023/07/24 08:41:02;;;;;;;11.98;9.18;;;20.30;99.90;;;;;;5114803;28;20032;-76
2023/07/24 08:43:29;;;;;;;9.98;8.82;;;20.20;99.90;;;;;;5114860;28;20078;-77
2023/07/24 08:45:57;;;;;;;9.27;7.80;;;20.10;99.90;;;;;;5114204;28;20468;-76
2023/07/24 08:48:23;;;;;;;9.63;8.60;;;20.00;99.90;;;;;;5114288;28;20043;-77
2023/07/24 08:50:51;;;;;;;7.72;6.93;;;20.00;99.90;;;;;;5114543;28;20256;-77
2023/07/24 08:53:19;;;;;;;9.38;8.23;;;20.00;99.90;;;;;;5113859;28;20059;-76
2023/07/24 08:55:48;;;;;;;10.60;8.70;;;20.10;99.90;;;;;;5095321;28;20031;-76
2023/07/24 08:58:14;;;;;;;11.63;8.25;;;20.30;99.90;;;;;;5113998;28;20043;-77
2023/07/24 09:00:40;;;;;;;11.85;7.93;;;20.40;99.90;;;;;;5113635;28;20464;-77
2023/07/24 09:03:06;;;;;;;8.63;7.68;;;20.50;99.90;;;;;;5113484;28;20028;-76
2023/07/24 09:05:31;;;;;;;8.82;7.63;;;20.70;99.90;;;;;;5113870;28;20052;-76
2023/07/24 09:07:57;;;;;;;9.25;7.82;;;20.70;99.90;;;;;;5095405;28;20092;-77
2023/07/24 09:10:26;;;;;;;8.73;6.50;;;20.80;99.80;;;;;;5096303;28;20032;-78
2023/07/24 09:12:52;;;;;;;8.98;6.82;;;20.80;99.60;;;;;;5097787;28;20138;-76
2023/07/24 09:15:18;;;;;;;7.40;6.60;;;20.80;98.90;;;;;;5115431;28;20031;-77
2023/07/24 09:17:51;;;;;;;9.40;6.25;;;20.70;98.60;;;;;;5114622;28;20033;-77
2023/07/24 09:20:18;;;;;;;9.80;7.20;;;20.70;98.70;;;;;;5114970;28;20024;-77
2023/07/24 09:22:53;;;;;;;7.32;6.22;;;20.70;98.70;;;;;;5114818;28;20023;-78
2023/07/24 09:25:33;;;;;;;7.25;6.00;;;20.70;98.90;;;;;;5115081;28;20102;-77
2023/07/24 09:27:59;;;;;;;7.93;6.10;;;20.90;98.90;;;;;;5115574;28;20058;-77
2023/07/24 09:30:25;;;;;;;8.60;6.10;;;21.00;98.80;;;;;;5114926;28;20111;-77
2023/07/24 09:32:55;;;;;;;7.43;5.57;;;21.20;98.80;;;;;;5115275;28;20047;-76
2023/07/24 09:35:27;;;;;;;8.27;6.45;;;21.30;97.80;;;;;;5097616;28;20466;-76
2023/07/24 09:38:03;;;;;;;8.60;6.32;;;21.50;97.70;;;;;;5098651;28;20036;-77
2023/07/24 09:40:36;;;;;;;5.32;4.45;;;21.60;97.10;;;;;;5116500;28;20019;-78
2023/07/24 09:43:02;;;;;;;8.25;5.97;;;21.60;97.30;;;;;;5096790;28;20024;-77
2023/07/24 09:45:29;;;;;;;9.30;6.40;;;21.70;97.40;;;;;;5113356;28;20050;-76
2023/07/24 09:47:56;;;;;;;8.85;6.72;;;21.70;97.00;;;;;;5095828;28;20032;-74
2023/07/24 09:50:23;;;;;;;7.90;5.50;;;21.60;96.90;;;;;;5119546;28;20035;-77
2023/07/24 09:52:50;;;;;;;5.68;4.45;;;21.50;96.60;;;;;;5121957;28;20047;-80
2023/07/24 09:55:29;;;;;;;7.70;5.40;;;21.40;96.80;;;;;;5122640;28;20102;-77
2023/07/24 09:57:56;;;;;;;8.00;5.57;;;21.30;96.50;;;;;;5104120;28;20020;-77
2023/07/24 10:00:22;;;;;;;7.00;4.97;;;21.20;96.50;;;;;;5120881;28;20410;-77
2023/07/24 10:02:48;;;;;;;7.20;4.55;;;21.10;96.40;;;;;;5121164;28;20028;-77
2023/07/24 10:05:15;;;;;;;6.55;4.53;;;21.10;96.40;;;;;;5121569;28;20027;-77
2023/07/24 10:07:41;;;;;;;6.93;4.47;;;21.10;96.20;;;;;;5121133;28;20038;-78
2023/07/24 10:10:08;;;;;;;7.05;4.63;;;21.00;96.00;;;;;;5122510;28;20035;-79
2023/07/24 10:12:34;;;;;;;5.80;4.45;;;21.00;96.00;;;;;;5105375;28;20040;-80
2023/07/24 10:15:01;;;;;;;6.80;5.40;;;20.90;96.30;;;;;;5123315;28;20118;-78
2023/07/24 10:17:40;;;;;;;6.93;5.30;;;20.90;96.80;;;;;;5124281;28;20035;-77
2023/07/24 10:20:08;;;;;;;9.98;5.20;;;20.80;97.10;;;;;;5124285;28;20054;-79
2023/07/24 10:22:35;;;;;;;6.13;4.82;;;20.70;97.20;;;;;;5105410;28;20051;-78
2023/07/24 10:25:01;;;;;;;5.60;4.63;;;20.80;97.30;;;;;;5123124;28;20489;-77
2023/07/24 10:27:28;;;;;;;8.10;5.28;;;20.80;97.30;;;;;;5105053;28;20040;-77
2023/07/24 10:30:06;;;;;;;6.47;5.45;;;20.80;96.90;;;;;;5122319;28;20089;-78
2023/07/24 10:32:32;;;;;;;6.15;5.40;;;20.90;96.70;;;;;;5103299;28;20387;-79
2023/07/24 10:35:11;;;;;;;7.28;5.38;;;20.90;96.90;;;;;;5102658;28;20031;-79
2023/07/24 10:37:37;;;;;;;6.78;5.68;;;20.90;96.90;;;;;;5104659;28;20036;-78
2023/07/24 10:40:04;;;;;;;7.88;5.22;;;20.80;96.90;;;;;;5121474;28;20510;-78
2023/07/24 10:42:33;;;;;;;8.02;6.38;;;20.80;97.10;;;;;;5120785;28;20027;-79
2023/07/24 10:45:07;;;;;;;9.50;6.32;;;20.80;97.40;;;;;;5120168;28;20023;-78
2023/07/24 10:47:33;;;;;;;7.15;6.45;;;20.80;97.20;;;;;;5102120;28;20054;-78
2023/07/24 10:50:01;;;;;;;10.95;7.07;;;20.80;97.10;;;;;;5101672;28;20371;-78
2023/07/24 10:52:33;;;;;;;7.13;5.47;;;20.80;97.20;;;;;;5119920;28;20051;-77
2023/07/24 10:55:02;;;;;;;;;;;20.70;97.30;;;;;;5119907;28;20098;-78
2023/07/24 10:57:31;;;;;;;6.65;5.72;;;20.70;97.40;;;;;;5101913;28;20062;-79
2023/07/24 10:59:57;;;;;;;6.97;4.85;;;20.70;97.40;;;;;;5118707;28;20023;-79
2023/07/24 11:02:23;;;;;;;7.85;5.20;;;20.70;97.40;;;;;;5097777;28;20024;-78
2023/07/24 11:04:49;;;;;;;7.00;5.28;;;20.70;97.70;;;;;;5116434;28;20032;-79
2023/07/24 11:07:15;;;;;;;8.93;6.28;;;20.80;97.80;;;;;;5115958;28;20212;-78
2023/07/24 11:09:41;;;;;;;8.48;5.55;;;20.70;97.90;;;;;;5097675;28;20470;-77
2023/07/24 11:12:14;;;;;;;6.35;4.75;;;20.80;97.90;;;;;;5080796;28;20383;-78
2023/07/24 11:14:50;;;;;;;4.85;4.10;;;20.80;97.30;;;;;;5115948;28;20024;-78
2023/07/24 11:17:16;;;;;;;6.75;4.50;;;20.80;97.30;;;;;;5115862;28;20043;-79
2023/07/24 11:19:42;;;;;;;7.30;4.85;;;20.80;97.30;;;;;;5115658;28;20030;-79
2023/07/24 11:22:08;;;;;;;5.88;4.53;;;20.80;97.40;;;;;;5099773;28;20387;-79
2023/07/24 11:24:45;;;;;;;7.13;4.72;;;20.90;97.60;;;;;;5099516;28;20344;-79
2023/07/24 11:27:16;;;;;;;6.63;4.90;;;21.00;97.70;;;;;;5117687;28;20130;-79
2023/07/24 11:29:47;;;;;;;6.38;5.07;;;21.10;97.40;;;;;;5117603;28;20042;-80
2023/07/24 11:32:16;;;;;;;7.93;5.57;;;21.10;97.20;;;;;;5118394;28;20501;-80
2023/07/24 11:34:42;;;;;;;7.65;5.10;;;21.10;96.80;;;;;;5098320;28;20265;-79
2023/07/24 11:37:08;;;;;;;8.85;5.65;;;21.10;96.80;;;;;;5117259;28;20116;-79
2023/07/24 11:39:33;;;;;;;8.23;5.53;;;21.00;96.50;;;;;;5098453;28;20099;-79
2023/07/24 11:42:01;;;;;;;7.03;5.60;;;20.90;96.40;;;;;;5098821;28;20152;-79
2023/07/24 11:44:28;;;;;;;6.38;4.95;;;20.80;96.60;;;;;;5117301;28;20028;-79
2023/07/24 11:47:04;;;;;;;6.63;5.15;;;20.70;96.70;;;;;;5097458;28;20036;-80
2023/07/24 11:49:31;;;;;;;5.80;5.20;;;20.70;96.80;;;;;;5116195;28;20468;-79
2023/07/24 11:52:07;;;;;;;6.45;4.78;;;20.80;96.90;;;;;;5116733;28;20034;-79
2023/07/24 11:54:36;;;;;;;8.55;6.13;;;20.80;97.10;;;;;;5098680;28;20048;-79
2023/07/24 11:57:01;;;;;;;7.38;5.90;;;20.90;97.10;;;;;;5116190;28;20089;-79
2023/07/24 11:59:27;;;;;;;7.40;6.53;;;20.90;97.20;;;;;;5116640;28;20032;-79
2023/07/24 12:01:53;;;;;;;9.90;6.18;;;21.00;97.40;;;;;;5116933;28;20051;-79
2023/07/24 12:04:20;;;;;;;6.85;6.13;;;20.90;97.10;;;;;;5115824;28;20367;-79
2023/07/24 12:06:46;;;;;;;7.05;5.38;;;21.00;97.10;;;;;;5115841;28;20081;-79
2023/07/24 12:09:12;;;;;;;8.23;6.38;;;21.00;97.20;;;;;;5115445;28;20390;-79
2023/07/24 12:11:43;;;;;;;10.07;5.78;;;21.10;97.20;;;;;;5096597;28;20081;-79
2023/07/24 12:14:09;;;;;;;6.72;4.50;;;21.20;97.30;;;;;;5097508;28;20134;-78
2023/07/24 12:16:36;;;;;;;8.40;4.43;;;21.30;96.70;;;;;;5116174;28;20183;-79
2023/07/24 12:19:01;;;;;;;7.70;4.20;;;21.60;96.40;;;;;;5116365;28;20092;-79
2023/07/24 12:21:27;;;;;;;5.85;3.90;;;21.70;95.90;;;;;;5115196;28;20110;-79
2023/07/24 12:23:53;;;;;;;5.63;3.88;;;21.90;96.00;;;;;;5115793;28;20106;-79
2023/07/24 12:26:19;;;;;;;8.13;4.00;;;22.00;95.40;;;;;;5114292;28;20032;-79
2023/07/24 12:28:44;;;;;;;7.28;4.68;;;22.10;95.20;;;;;;5097384;28;20035;-79
2023/07/24 12:31:10;;;;;;;7.03;4.35;;;22.10;94.60;;;;;;5116017;28;20059;-79
2023/07/24 12:33:35;;;;;;;7.55;4.60;;;21.90;94.30;;;;;;5115147;28;20031;-78
2023/07/24 12:36:01;;;;;;;8.77;4.45;;;21.90;94.50;;;;;;5115442;28;20027;-78
2023/07/24 12:38:27;;;;;;;8.50;4.00;;;21.70;94.40;;;;;;5080014;28;20054;-79
2023/07/24 12:40:53;;;;;;;7.78;4.30;;;21.60;94.60;;;;;;5116067;28;20392;-78
2023/07/24 12:43:19;;;;;;;7.25;4.10;;;21.50;94.90;;;;;;5116358;28;20023;-78